SWR102 EDDH-LSGG
Flight info
| Callsign | SWR102 |
|---|---|
| Flight time | N/A |
| Altitude | 40000 |
| Route | HABFU1G/33 HABFU Y348 MAWEQ DCT NVO DCT LIMGO/N0478F410 N852 SUTAL DCT GTQ DCT POGOL DCT LASAT DCT MOROK Z24 AKITO |
| Aircraft | A359/H-SDE2E3GHIJ3J4J5LM1ORWXY/LB1D1 |
Departure
| Time | 2026-04-24 19:05 |
|---|---|
| Airport | Hamburg Helmut Schmidt Airport (EDDH) |
Arrival
| Time | N/A |
|---|---|
| Airport | Geneva International Airport (LSGG) |
| Time | Latitude | Longitude | Altitude | Speed | Heading |
|---|---|---|---|---|---|
| 2026-04-24 18:54 | 53.62726 | 9.99023 | 53 ft | 0 kts | 153° |
| 2026-04-24 18:56 | 53.62725 | 9.99024 | 53 ft | 0 kts | 153° |
| 2026-04-24 18:56 | 53.62713 | 9.99034 | 46 ft | 3 kts | 153° |
| 2026-04-24 18:56 | 53.62681 | 9.99062 | 49 ft | 7 kts | 153° |
| 2026-04-24 18:56 | 53.62653 | 9.99086 | 47 ft | 0 kts | 153° |
| 2026-04-24 18:57 | 53.62650 | 9.99089 | 46 ft | 1 kts | 153° |
| 2026-04-24 18:57 | 53.62647 | 9.99091 | 47 ft | 0 kts | 153° |
| 2026-04-24 18:59 | 53.62634 | 9.99102 | 49 ft | 4 kts | 153° |
| 2026-04-24 18:59 | 53.62596 | 9.99138 | 47 ft | 8 kts | 144° |
| 2026-04-24 19:00 | 53.62580 | 9.99230 | 48 ft | 10 kts | 81° |
| 2026-04-24 19:00 | 53.62592 | 9.99359 | 49 ft | 13 kts | 81° |
| 2026-04-24 19:00 | 53.62611 | 9.99524 | 48 ft | 16 kts | 79° |
| 2026-04-24 19:00 | 53.62630 | 9.99691 | 52 ft | 0 kts | 79° |
| 2026-04-24 19:01 | 53.62630 | 9.99693 | 53 ft | 0 kts | 79° |
| 2026-04-24 19:03 | 53.62630 | 9.99694 | 53 ft | 1 kts | 79° |
| 2026-04-24 19:03 | 53.62632 | 9.99707 | 53 ft | 0 kts | 79° |
| 2026-04-24 19:04 | 53.62633 | 9.99713 | 53 ft | 3 kts | 79° |
| 2026-04-24 19:04 | 53.62642 | 9.99768 | 49 ft | 9 kts | 69° |
| 2026-04-24 19:04 | 53.62691 | 9.99861 | 47 ft | 12 kts | 21° |
| 2026-04-24 19:04 | 53.62741 | 9.99849 | 47 ft | 0 kts | 335° |
| 2026-04-24 19:05 | 53.62743 | 9.99848 | 47 ft | 7 kts | 335° |
| 2026-04-24 19:05 | 53.63051 | 9.99588 | 50 ft | 89 kts | 332° |
| 2026-04-24 19:05 | 53.63809 | 9.98924 | 53 ft | 154 kts | 332° |
| 2026-04-24 19:05 | 53.64796 | 9.98144 | 835 ft | 152 kts | 332° |
| 2026-04-24 19:06 | 53.65727 | 9.97380 | 1721 ft | 152 kts | 329° |
| 2026-04-24 19:06 | 53.66726 | 9.96491 | 2026 ft | 175 kts | 330° |
| 2026-04-24 19:06 | 53.67844 | 9.95503 | 2581 ft | 184 kts | 333° |
| 2026-04-24 19:06 | 53.68979 | 9.94519 | 3347 ft | 183 kts | 333° |
| 2026-04-24 19:07 | 53.70108 | 9.93483 | 4018 ft | 188 kts | 328° |
| 2026-04-24 19:07 | 53.71047 | 9.91894 | 4595 ft | 198 kts | 305° |
| 2026-04-24 19:07 | 53.71388 | 9.90433 | 4860 ft | 211 kts | 286° |
| 2026-04-24 19:07 | 53.71117 | 9.86861 | 5241 ft | 250 kts | 257° |
| 2026-04-24 19:08 | 53.70523 | 9.84028 | 5731 ft | 262 kts | 255° |
| 2026-04-24 19:08 | 53.69906 | 9.81134 | 6074 ft | 267 kts | 256° |
| 2026-04-24 19:08 | 53.69281 | 9.78129 | 6152 ft | 268 kts | 256° |
| 2026-04-24 19:08 | 53.68676 | 9.75156 | 6199 ft | 268 kts | 256° |
| 2026-04-24 19:09 | 53.68080 | 9.72160 | 6531 ft | 271 kts | 256° |
| 2026-04-24 19:09 | 53.67489 | 9.69181 | 7223 ft | 271 kts | 257° |
| 2026-04-24 19:09 | 53.66890 | 9.66165 | 7952 ft | 272 kts | 257° |
| 2026-04-24 19:09 | 53.66289 | 9.63134 | 8642 ft | 274 kts | 257° |
| 2026-04-24 19:10 | 53.65624 | 9.60097 | 9337 ft | 280 kts | 251° |
| 2026-04-24 19:10 | 53.64463 | 9.57392 | 9922 ft | 294 kts | 227° |
| 2026-04-24 19:10 | 53.62744 | 9.55439 | 10136 ft | 301 kts | 214° |
| 2026-04-24 19:10 | 53.60883 | 9.53773 | 10149 ft | 304 kts | 212° |
| 2026-04-24 19:11 | 53.59007 | 9.52119 | 10185 ft | 305 kts | 212° |
| 2026-04-24 19:11 | 53.57110 | 9.50421 | 10322 ft | 315 kts | 213° |
| 2026-04-24 19:11 | 53.55128 | 9.48623 | 10541 ft | 332 kts | 213° |
| 2026-04-24 19:11 | 53.53049 | 9.46729 | 10779 ft | 347 kts | 212° |
| 2026-04-24 19:12 | 53.50890 | 9.44766 | 11184 ft | 356 kts | 212° |
| 2026-04-24 19:12 | 53.48702 | 9.42778 | 11714 ft | 359 kts | 212° |
| 2026-04-24 19:12 | 53.46480 | 9.40762 | 12313 ft | 361 kts | 212° |
| 2026-04-24 19:12 | 53.44285 | 9.38769 | 12869 ft | 363 kts | 212° |
| 2026-04-24 19:13 | 53.42776 | 9.37399 | 13282 ft | 364 kts | 212° |
| 2026-04-24 19:13 | 53.39815 | 9.34707 | 14035 ft | 367 kts | 212° |
| 2026-04-24 19:13 | 53.37545 | 9.32653 | 14538 ft | 369 kts | 212° |
| 2026-04-24 19:13 | 53.35301 | 9.30622 | 15026 ft | 371 kts | 212° |
| 2026-04-24 19:14 | 53.32997 | 9.28646 | 15536 ft | 375 kts | 207° |
| 2026-04-24 19:14 | 53.30476 | 9.27367 | 16043 ft | 381 kts | 195° |
| 2026-04-24 19:14 | 53.27860 | 9.26557 | 16553 ft | 384 kts | 193° |
| 2026-04-24 19:14 | 53.25217 | 9.25794 | 17056 ft | 386 kts | 193° |
| 2026-04-24 19:15 | 53.22560 | 9.25021 | 17569 ft | 389 kts | 193° |
| 2026-04-24 19:15 | 53.19893 | 9.24238 | 18056 ft | 391 kts | 193° |
| 2026-04-24 19:15 | 53.17212 | 9.23448 | 18535 ft | 393 kts | 193° |
| 2026-04-24 19:15 | 53.14513 | 9.22649 | 18958 ft | 395 kts | 194° |
| 2026-04-24 19:16 | 53.09078 | 9.21037 | 19819 ft | 398 kts | 194° |